Time;durP1;ratioP1;P1;durP2;ratioP2;P2;SDS_P1;SDS_P2;PMS_P1;PMS_P2;Temp;Humidity;BMP_temperature;BMP_pressure;BME280_temperature;BME280_humidity;BME280_pressure;Samples;Min_cycle;Max_cycle;Signal;HPM_P1;HPM_P2
2023/05/05 00:00:48;;;;;;;6.07;2.83;;;;;;;15.67;67.72;99713.00;12214686;19;20013;-85
2023/05/05 00:04:50;;;;;;;5.28;3.08;;;;;;;15.67;67.03;99715.78;12213397;19;20027;-86
2023/05/05 00:08:51;;;;;;;6.13;2.90;;;;;;;15.65;67.29;99716.09;12193279;19;20015;-86
2023/05/05 00:12:53;;;;;;;5.88;3.17;;;;;;;15.56;69.09;99706.69;12212177;19;20007;-85
2023/05/05 00:16:55;;;;;;;6.53;2.77;;;;;;;15.45;70.32;99711.47;12211237;19;20023;-85
2023/05/05 00:20:57;;;;;;;9.73;3.03;;;;;;;15.33;71.73;99710.97;12191623;19;20380;-84
2023/05/05 00:24:59;;;;;;;4.68;2.75;;;;;;;15.18;72.77;99713.78;12216337;19;20095;-86
2023/05/05 00:29:02;;;;;;;5.50;3.28;;;;;;;15.02;73.83;99716.63;12213512;19;20010;-85
2023/05/05 00:33:04;;;;;;;5.10;2.80;;;;;;;14.87;74.91;99716.63;12191033;19;20006;-85
2023/05/05 00:37:06;;;;;;;6.68;2.85;;;;;;;14.77;76.10;99719.44;12210242;19;20085;-85
2023/05/05 00:41:08;;;;;;;6.10;3.13;;;;;;;14.67;77.22;99705.59;12215087;19;20426;-84
2023/05/05 00:45:11;;;;;;;6.50;3.10;;;;;;;14.62;77.42;99705.59;12191884;19;20014;-85
2023/05/05 00:49:15;;;;;;;7.90;3.10;;;;;;;14.64;76.87;99711.69;12212568;19;20006;-84
2023/05/05 00:53:17;;;;;;;7.35;3.20;;;;;;;14.67;76.63;99700.88;12213373;19;20002;-85
2023/05/05 00:57:19;;;;;;;7.53;3.78;;;;;;;14.73;76.30;99710.84;12187869;19;20033;-85
2023/05/05 01:01:22;;;;;;;5.70;3.22;;;;;;;14.79;75.92;99708.91;12208799;19;20492;-85
2023/05/05 01:05:26;;;;;;;7.53;3.13;;;;;;;14.83;75.92;99710.00;12190537;19;20388;-84
2023/05/05 01:09:31;;;;;;;6.15;3.38;;;;;;;14.88;75.89;99706.38;12213033;19;20010;-84
2023/05/05 01:13:52;;;;;;;5.57;3.83;;;;;;;14.91;75.96;99695.56;12210808;19;20238;-85
2023/05/05 01:18:02;;;;;;;7.70;3.25;;;;;;;14.94;75.58;99708.03;12188334;19;20101;-85
2023/05/05 01:22:07;;;;;;;7.13;3.53;;;;;;;14.89;75.37;99696.94;12210753;19;20011;-85
2023/05/05 01:26:20;;;;;;;6.75;3.60;;;;;;;14.84;76.59;99683.06;12210875;19;20006;-85
2023/05/05 01:30:52;;;;;;;9.13;3.85;;;;;;;14.77;76.40;99680.59;12184387;19;20062;-85
2023/05/05 01:35:32;;;;;;;9.52;3.22;;;;;;;14.70;77.00;99671.75;12205497;19;20007;-85
2023/05/05 01:39:36;;;;;;;11.40;3.33;;;;;;;14.67;77.36;99661.22;12180250;19;20371;-85
2023/05/05 01:43:40;;;;;;;5.07;3.15;;;;;;;14.68;77.72;99657.31;12208877;19;20014;-84
2023/05/05 01:47:43;;;;;;;5.10;3.47;;;;;;;14.67;78.42;99641.81;12187482;19;20113;-86
2023/05/05 01:51:46;;;;;;;5.18;3.30;;;;;;;14.64;78.08;99664.56;12210195;19;20022;-85
2023/05/05 01:55:49;;;;;;;5.45;3.55;;;;;;;14.53;78.25;99675.66;12208332;19;20018;-85
2023/05/05 01:59:51;;;;;;;;;;;;;;;14.37;79.03;99682.31;12182784;19;20082;-85
2023/05/05 02:03:56;;;;;;;5.35;3.20;;;;;;;14.27;79.91;99685.06;12206193;19;19970;-85
2023/05/05 02:07:59;;;;;;;7.50;3.22;;;;;;;14.19;80.64;99705.84;12207816;19;20018;-85
2023/05/05 02:12:04;;;;;;;7.50;3.67;;;;;;;14.13;81.00;99715.28;12195839;19;20015;-86
2023/05/05 02:16:07;;;;;;;5.55;3.03;;;;;;;14.07;82.02;99716.38;12217897;19;20017;-85
2023/05/05 02:20:11;;;;;;;6.60;3.25;;;;;;;14.05;81.89;99715.81;12219761;19;20812;-85
2023/05/05 02:24:13;;;;;;;8.85;3.78;;;;;;;14.07;81.96;99714.44;12196956;19;20011;-84
2023/05/05 02:28:27;;;;;;;8.93;3.55;;;;;;;14.12;81.09;99717.19;12220335;19;20006;-84
2023/05/05 02:32:47;;;;;;;5.03;3.35;;;;;;;14.20;80.92;99720.53;12196101;19;20002;-85
2023/05/05 02:36:53;;;;;;;8.82;4.28;;;;;;;14.22;80.21;99721.94;12216702;19;20051;-85
2023/05/05 02:40:57;;;;;;;5.72;3.63;;;;;;;14.23;80.14;99720.81;12217673;19;20007;-85
2023/05/05 02:45:03;;;;;;;7.15;3.92;;;;;;;14.23;81.16;99733.84;12195992;19;20010;-85
2023/05/05 02:49:06;;;;;;;6.18;4.03;;;;;;;14.21;80.91;99727.75;12219928;19;20022;-85
2023/05/05 02:53:09;;;;;;;5.90;3.50;;;;;;;14.20;81.22;99735.22;12216983;19;20631;-85
2023/05/05 02:57:16;;;;;;;5.90;3.40;;;;;;;14.21;81.87;99736.88;12190991;19;20511;-86
2023/05/05 03:01:55;;;;;;;9.50;4.20;;;;;;;14.22;82.64;99726.63;12214015;19;20522;-85
2023/05/05 03:06:17;;;;;;;7.55;4.57;;;;;;;14.25;82.88;99737.19;12195747;19;20007;-85
2023/05/05 03:10:29;;;;;;;7.43;4.60;;;;;;;14.29;81.85;99743.81;12217649;19;20034;-87
2023/05/05 03:14:40;;;;;;;8.05;4.82;;;;;;;14.34;81.44;99729.97;12195874;19;20014;-85
2023/05/05 03:18:47;;;;;;;8.15;4.50;;;;;;;14.38;82.26;99735.78;12217507;19;20491;-84
2023/05/05 03:22:49;;;;;;;8.80;4.75;;;;;;;14.37;83.02;99734.97;12216636;19;20086;-84
2023/05/05 03:26:52;;;;;;;8.45;4.63;;;;;;;14.29;83.78;99735.50;12194488;19;20017;-84
2023/05/05 03:30:58;;;;;;;11.38;5.03;;;;;;;14.19;83.77;99739.13;12215148;19;20013;-84
2023/05/05 03:35:00;;;;;;;8.68;4.95;;;;;;;14.08;83.96;99741.03;12218431;19;20011;-84
2023/05/05 03:39:07;;;;;;;9.05;5.65;;;;;;;13.97;85.14;99742.13;12195275;19;20003;-84
2023/05/05 03:43:08;;;;;;;10.47;5.50;;;;;;;13.86;86.08;99743.19;12215850;19;20077;-85
2023/05/05 03:47:11;;;;;;;9.55;5.50;;;;;;;13.72;86.96;99734.59;12213632;19;20018;-85
2023/05/05 03:51:14;;;;;;;8.20;5.07;;;;;;;13.65;88.08;99734.84;12190197;19;20038;-84
2023/05/05 03:55:16;;;;;;;9.27;5.70;;;;;;;13.56;88.03;99747.53;12216451;19;20659;-85
2023/05/05 03:59:18;;;;;;;8.65;5.68;;;;;;;13.51;89.89;99739.22;12215492;19;20267;-85
2023/05/05 04:03:20;;;;;;;8.75;5.45;;;;;;;13.45;90.76;99735.59;12192229;19;20006;-85
2023/05/05 04:07:22;;;;;;;13.95;6.68;;;;;;;13.40;91.95;99732.81;12214177;19;20002;-85
2023/05/05 04:11:25;;;;;;;11.95;5.72;;;;;;;13.41;91.58;99737.25;12190547;19;20017;-85
2023/05/05 04:15:29;;;;;;;12.40;5.63;;;;;;;13.45;91.94;99751.38;12214692;19;20106;-85
2023/05/05 04:19:31;;;;;;;8.37;5.33;;;;;;;13.53;91.21;99750.00;12211892;19;20066;-84
2023/05/05 04:23:35;;;;;;;12.75;5.88;;;;;;;13.56;91.42;99753.06;12191453;19;20496;-84
2023/05/05 04:27:37;;;;;;;12.02;6.20;;;;;;;13.64;90.82;99755.31;12210551;19;20023;-85
2023/05/05 04:31:40;;;;;;;8.35;6.15;;;;;;;13.72;91.65;99756.75;12212296;19;20487;-84
2023/05/05 04:35:42;;;;;;;5.60;3.75;;;;;;;13.76;91.42;99757.03;12190019;19;20018;-84
2023/05/05 04:39:44;;;;;;;9.15;5.38;;;;;;;13.80;91.39;99759.00;12214584;19;20353;-85
2023/05/05 04:43:46;;;;;;;9.33;5.73;;;;;;;13.81;91.59;99766.19;12215127;19;20007;-83
2023/05/05 04:47:49;;;;;;;8.65;5.45;;;;;;;13.87;92.04;99775.34;12188136;19;20011;-82
2023/05/05 04:51:50;;;;;;;9.63;4.28;;;;;;;14.01;91.59;99765.41;12214515;19;20090;-84
2023/05/05 04:55:52;;;;;;;8.38;5.40;;;;;;;14.21;92.67;99774.84;12212340;19;20538;-83
2023/05/05 04:59:54;;;;;;;8.80;5.45;;;;;;;14.33;91.41;99778.19;12191142;19;20042;-84
2023/05/05 05:03:56;;;;;;;9.65;5.68;;;;;;;14.41;90.53;99774.06;12212616;19;20019;-84
2023/05/05 05:07:58;;;;;;;9.80;5.83;;;;;;;14.45;90.33;99781.53;12212184;19;20030;-84
2023/05/05 05:12:03;;;;;;;9.65;6.20;;;;;;;14.47;90.64;99792.34;12191972;19;20007;-84
2023/05/05 05:16:05;;;;;;;9.80;5.30;;;;;;;14.49;90.93;99796.53;12214174;19;20030;-84
2023/05/05 05:20:07;;;;;;;8.32;5.30;;;;;;;14.54;91.00;99788.22;12212126;19;20010;-83
2023/05/05 05:24:10;;;;;;;;;;;;;;;14.62;91.58;99795.16;12170495;19;20014;-85
2023/05/05 05:28:12;;;;;;;13.40;6.43;;;;;;;14.70;90.93;99789.06;12211928;19;19942;-82
2023/05/05 05:32:20;;;;;;;13.10;6.35;;;;;;;14.71;91.13;99795.44;12214780;19;20018;-82
2023/05/05 05:36:22;;;;;;;10.60;6.03;;;;;;;14.72;91.55;99800.72;12184928;19;20014;-82
2023/05/05 05:40:26;;;;;;;9.95;5.90;;;;;;;14.76;91.50;99804.59;12213805;19;20018;-83
2023/05/05 05:44:29;;;;;;;10.13;5.55;;;;;;;14.81;92.66;99806.53;12193168;19;20490;-82
2023/05/05 05:48:30;;;;;;;10.13;6.75;;;;;;;14.86;93.11;99820.41;12211560;19;20399;-83
2023/05/05 05:52:35;;;;;;;8.82;6.38;;;;;;;14.96;92.57;99822.31;12217503;19;20003;-82
2023/05/05 05:56:38;;;;;;;8.15;5.60;;;;;;;15.06;93.25;99818.72;12191155;19;20011;-84
2023/05/05 06:00:40;;;;;;;10.07;6.20;;;;;;;15.25;93.25;99825.34;12212826;19;20070;-83
2023/05/05 06:04:46;;;;;;;10.85;6.75;;;;;;;15.58;92.24;99823.03;12216601;19;20089;-83
2023/05/05 06:08:50;;;;;;;8.35;5.95;;;;;;;15.87;91.78;99826.84;12188160;19;20007;-82
2023/05/05 06:12:53;;;;;;;8.83;5.90;;;;;;;16.20;90.95;99832.81;12216660;19;20007;-82
2023/05/05 06:16:55;;;;;;;10.27;5.97;;;;;;;16.54;89.97;99829.28;12212275;19;20085;-83
2023/05/05 06:20:59;;;;;;;13.90;7.10;;;;;;;16.83;89.70;99834.91;12187748;19;20019;-83
2023/05/05 06:25:02;;;;;;;12.55;5.78;;;;;;;16.97;88.82;99829.50;12210811;19;20017;-82
2023/05/05 06:29:04;;;;;;;11.93;5.80;;;;;;;17.05;88.94;99840.84;12211230;19;20094;-83
2023/05/05 06:33:06;;;;;;;11.35;6.18;;;;;;;17.22;88.88;99857.13;12189384;19;20089;-82
2023/05/05 06:37:08;;;;;;;11.60;5.90;;;;;;;17.46;88.24;99847.97;12206711;19;20011;-82
2023/05/05 06:41:10;;;;;;;10.95;5.95;;;;;;;17.69;87.04;99847.16;12212057;19;20012;-83
2023/05/05 06:45:15;;;;;;;9.88;5.47;;;;;;;17.90;86.11;99838.56;12189130;19;20010;-82
2023/05/05 06:49:20;;;;;;;10.00;5.65;;;;;;;18.02;85.97;99836.19;12210516;19;20031;-82
2023/05/05 06:53:23;;;;;;;9.23;5.93;;;;;;;18.12;85.56;99838.84;12187064;19;20007;-81
2023/05/05 06:57:25;;;;;;;14.67;5.47;;;;;;;18.26;85.65;99838.09;12214590;19;19998;-81
2023/05/05 07:01:27;;;;;;;9.97;5.40;;;;;;;18.32;85.23;99839.69;12222325;19;20494;-85
2023/05/05 07:05:29;;;;;;;21.10;5.90;;;;;;;18.42;84.36;99845.97;12200435;19;20463;-82
2023/05/05 07:09:31;;;;;;;9.48;5.03;;;;;;;18.50;84.22;99840.81;12223161;19;20034;-82
2023/05/05 07:13:32;;;;;;;8.18;5.20;;;;;;;18.63;84.34;99842.88;12219966;19;20026;-84
2023/05/05 07:17:34;;;;;;;18.48;5.70;;;;;;;18.72;82.37;99837.44;12191040;19;20021;-83
2023/05/05 07:21:36;;;;;;;7.70;5.63;;;;;;;18.79;81.90;99846.28;12213976;19;20060;-83
2023/05/05 07:25:38;;;;;;;9.48;5.15;;;;;;;19.01;81.36;99854.03;12217679;19;20006;-84
2023/05/05 07:29:39;;;;;;;7.53;4.57;;;;;;;19.27;81.08;99860.81;12196660;19;20010;-84
2023/05/05 07:33:41;;;;;;;8.23;4.53;;;;;;;19.42;79.75;99864.47;12217159;19;20540;-82
2023/05/05 07:37:44;;;;;;;6.80;4.67;;;;;;;19.50;79.39;99856.19;12211910;19;20011;-83
2023/05/05 07:41:46;;;;;;;;;;;;;;;19.57;80.19;99853.84;12196107;19;20011;-84
2023/05/05 07:45:47;;;;;;;7.05;4.57;;;;;;;19.73;78.35;99848.81;12217313;19;19914;-83
2023/05/05 07:49:49;;;;;;;6.03;4.57;;;;;;;19.90;77.42;99852.94;12216639;19;20014;-84
2023/05/05 07:53:51;;;;;;;7.25;5.10;;;;;;;20.01;75.84;99855.22;12196055;19;20362;-82
2023/05/05 07:57:53;;;;;;;7.43;4.60;;;;;;;20.28;76.01;99847.94;12215794;19;20010;-82
2023/05/05 08:01:55;;;;;;;8.88;4.10;;;;;;;20.59;73.22;99858.50;12216144;19;20471;-83
2023/05/05 08:06:06;;;;;;;8.60;4.60;;;;;;;20.74;72.54;99862.91;12193778;19;20018;-84
2023/05/05 08:10:12;;;;;;;7.32;4.43;;;;;;;20.96;71.79;99864.88;12217047;19;20539;-84
2023/05/05 08:14:15;;;;;;;8.30;4.38;;;;;;;21.39;71.97;99866.03;12216913;19;20378;-84
2023/05/05 08:18:18;;;;;;;11.55;4.53;;;;;;;21.61;69.85;99861.53;12191089;19;20009;-84
2023/05/05 08:22:20;;;;;;;7.90;4.82;;;;;;;21.56;70.38;99865.28;12213559;19;20074;-83
2023/05/05 08:26:22;;;;;;;7.82;4.20;;;;;;;21.66;70.00;99861.41;12193099;19;20347;-84
2023/05/05 08:30:24;;;;;;;8.13;4.82;;;;;;;21.81;69.65;99860.97;12213981;19;20010;-83
2023/05/05 08:34:26;;;;;;;6.60;3.70;;;;;;;22.09;68.46;99857.91;12213120;19;20030;-86
2023/05/05 08:38:29;;;;;;;8.73;4.57;;;;;;;22.24;65.27;99857.47;12188454;19;20078;-84
2023/05/05 08:42:32;;;;;;;7.57;4.90;;;;;;;22.37;66.58;99847.28;12214255;19;20496;-83
2023/05/05 08:46:40;;;;;;;7.95;4.78;;;;;;;22.55;65.92;99845.34;12213626;19;20403;-84
2023/05/05 08:50:47;;;;;;;7.28;4.95;;;;;;;22.58;64.55;99853.09;12188311;19;19999;-82
2023/05/05 08:55:09;;;;;;;8.65;4.78;;;;;;;22.80;63.58;99851.28;12215112;19;20066;-83
2023/05/05 08:59:12;;;;;;;9.63;4.88;;;;;;;22.95;62.70;99845.19;12209839;19;20464;-84
2023/05/05 09:03:14;;;;;;;7.90;5.30;;;;;;;22.92;62.21;99841.03;12191238;19;20022;-83
2023/05/05 09:07:17;;;;;;;9.77;4.75;;;;;;;23.11;63.27;99840.72;12211910;19;20006;-83
2023/05/05 09:11:20;;;;;;;9.43;6.03;;;;;;;23.33;63.01;99845.28;12210144;19;20006;-84
2023/05/05 09:15:22;;;;;;;9.45;5.18;;;;;;;23.43;61.78;99841.28;12189287;19;20079;-82
2023/05/05 09:19:23;;;;;;;10.07;5.33;;;;;;;23.57;60.89;99846.72;12209729;19;20010;-83
2023/05/05 09:23:28;;;;;;;9.15;5.30;;;;;;;23.66;60.40;99839.06;12191145;19;20023;-83
2023/05/05 09:27:34;;;;;;;6.65;4.25;;;;;;;23.90;60.86;99837.69;12210118;19;20448;-82
2023/05/05 09:31:36;;;;;;;6.78;3.90;;;;;;;24.08;59.19;99837.22;12210275;19;20010;-83
2023/05/05 09:35:51;;;;;;;8.15;4.75;;;;;;;24.18;57.64;99833.19;12190010;19;20003;-83
2023/05/05 09:39:54;;;;;;;9.10;4.20;;;;;;;24.15;56.73;99825.44;12205668;19;20011;-82
2023/05/05 09:43:56;;;;;;;5.07;3.40;;;;;;;24.45;56.15;99817.84;12210506;19;20026;-83
2023/05/05 09:47:59;;;;;;;8.05;3.30;;;;;;;24.84;55.36;99821.31;12187767;19;20079;-82
2023/05/05 09:52:14;;;;;;;7.32;3.72;;;;;;;25.05;54.84;99810.00;12207232;19;20011;-84
2023/05/05 09:56:17;;;;;;;5.00;2.13;;;;;;;24.93;50.79;99807.97;12213941;19;20092;-84
2023/05/05 10:00:19;;;;;;;5.03;2.80;;;;;;;24.98;49.23;99804.91;12190623;19;20014;-85
2023/05/05 10:04:28;;;;;;;4.65;3.05;;;;;;;24.98;50.70;99810.56;12215123;19;20067;-84
2023/05/05 10:08:32;;;;;;;5.20;2.95;;;;;;;24.93;50.01;99807.16;12190453;19;20011;-84
2023/05/05 10:12:39;;;;;;;4.35;2.97;;;;;;;24.75;51.17;99801.66;12214128;19;20025;-84
2023/05/05 10:16:49;;;;;;;;;;;;;;;24.70;49.29;99799.06;12210919;19;20115;-83
2023/05/05 10:20:59;;;;;;;8.52;2.78;;;;;;;25.01;48.16;99792.94;12193433;19;19984;-85
2023/05/05 10:25:02;;;;;;;5.70;2.85;;;;;;;25.32;48.35;99786.03;12212666;19;20014;-85
2023/05/05 10:29:10;;;;;;;5.53;2.55;;;;;;;25.67;46.59;99782.75;12212757;19;20014;-86
2023/05/05 10:33:16;;;;;;;4.57;2.20;;;;;;;25.93;45.49;99796.56;12202517;19;20014;-85
2023/05/05 10:37:32;;;;;;;4.68;2.55;;;;;;;26.13;44.87;99789.13;12223663;19;20067;-84
2023/05/05 10:41:34;;;;;;;;;;;;;;;26.50;43.23;99789.94;12199555;19;20417;-84
2023/05/05 10:45:36;;;;;;;3.28;2.15;;;;;;;26.96;41.25;99783.97;12223995;19;19915;-86
2023/05/05 10:49:46;;;;;;;6.68;2.10;;;;;;;27.31;41.42;99780.50;12223812;19;20010;-86
2023/05/05 10:54:02;;;;;;;3.90;2.00;;;;;;;27.16;41.42;99780.13;12205419;19;20006;-86
2023/05/05 10:58:04;;;;;;;4.13;1.95;;;;;;;27.29;41.60;99782.88;12224807;19;20014;-83
2023/05/05 11:02:25;;;;;;;4.53;2.20;;;;;;;27.49;40.40;99774.13;12221959;19;20697;-84
2023/05/05 11:06:28;;;;;;;5.05;1.85;;;;;;;27.20;39.81;99772.56;12200784;19;20006;-85
2023/05/05 11:10:43;;;;;;;4.43;2.05;;;;;;;26.93;40.32;99770.56;12219689;19;20002;-86
2023/05/05 11:14:44;;;;;;;4.53;1.70;;;;;;;26.79;41.06;99763.31;12202717;19;20074;-87
2023/05/05 11:18:46;;;;;;;2.53;1.55;;;;;;;26.46;40.33;99765.53;12220071;19;20115;-87
2023/05/05 11:23:03;;;;;;;3.97;2.00;;;;;;;26.35;40.56;99753.91;12218988;19;20011;-86
2023/05/05 11:27:06;;;;;;;4.22;1.23;;;;;;;26.53;38.75;99748.81;12196130;19;20006;-87
2023/05/05 11:31:15;;;;;;;2.45;1.40;;;;;;;26.96;38.85;99733.91;12219075;19;20013;-86
2023/05/05 11:35:17;;;;;;;4.38;1.42;;;;;;;27.04;38.83;99729.28;12225048;19;20475;-86
2023/05/05 11:39:24;;;;;;;;;;;;;;;27.34;36.06;99718.38;12199498;19;20007;-86
2023/05/05 11:43:26;;;;;;;2.20;1.17;;;;;;;27.62;33.64;99731.59;12219434;19;19911;-87
2023/05/05 11:47:29;;;;;;;2.60;0.98;;;;;;;28.50;32.67;99717.88;12198463;19;20007;-86
2023/05/05 11:51:32;;;;;;;3.03;0.90;;;;;;;28.27;32.33;99711.28;12218995;19;20010;-87
2023/05/05 11:55:34;;;;;;;3.20;1.27;;;;;;;27.61;34.29;99710.97;12220902;19;20115;-86
2023/05/05 11:59:59;;;;;;;1.50;0.90;;;;;;;27.95;34.51;99700.84;12200420;19;20011;-87
2023/05/05 12:04:01;;;;;;;2.67;1.00;;;;;;;28.49;31.96;99701.22;12229533;19;20046;-86
2023/05/05 12:08:03;;;;;;;3.13;0.77;;;;;;;28.25;31.31;99691.81;12236266;19;20010;-85
2023/05/05 12:12:05;;;;;;;;;;;;;;;27.38;32.11;99701.47;12198269;19;20015;-86
2023/05/05 12:16:11;;;;;;;1.05;0.68;;;;;;;26.97;32.67;99695.13;12217938;19;19921;-86
2023/05/05 12:20:13;;;;;;;2.63;0.80;;;;;;;26.50;32.87;99705.16;12217516;19;20223;-85
2023/05/05 12:24:16;;;;;;;3.47;1.17;;;;;;;26.24;34.17;99702.75;12194010;19;20010;-84
2023/05/05 12:28:18;;;;;;;;;;;;;;;26.14;34.36;99692.75;12217537;19;20528;-85
2023/05/05 12:32:25;;;;;;;1.20;0.90;;;;;;;26.43;34.70;99681.50;12216249;19;20276;-84
2023/05/05 12:36:27;;;;;;;1.27;0.75;;;;;;;27.40;34.63;99691.44;12192858;19;20373;-86
2023/05/05 12:40:45;;;;;;;1.55;1.02;;;;;;;27.94;32.62;99693.56;12209530;19;20074;-84
2023/05/05 12:44:48;;;;;;;4.90;1.23;;;;;;;28.17;32.77;99685.19;12190762;19;20531;-84
2023/05/05 12:49:03;;;;;;;2.58;1.10;;;;;;;28.79;32.87;99673.91;12209964;19;20019;-85
2023/05/05 12:53:05;;;;;;;1.73;0.90;;;;;;;29.66;31.64;99685.59;12219209;19;20014;-87
2023/05/05 12:57:10;;;;;;;1.40;0.85;;;;;;;30.24;29.67;99675.88;12195850;19;20488;-86
2023/05/05 13:01:12;;;;;;;2.50;1.45;;;;;;;31.17;29.79;99659.84;12214822;19;20030;-86
2023/05/05 13:05:13;;;;;;;;;;;;;;;32.51;29.20;99660.34;12217460;19;20340;-86
2023/05/05 13:09:22;;;;;;;2.78;0.90;;;;;;;33.55;26.25;99658.53;12193072;19;19920;-87
2023/05/05 13:13:24;;;;;;;4.05;1.45;;;;;;;34.21;26.40;99637.16;12217905;19;20423;-86
2023/05/05 13:17:26;;;;;;;2.33;1.20;;;;;;;34.42;25.43;99634.19;12191693;19;20475;-86
2023/05/05 13:21:30;;;;;;;2.30;1.35;;;;;;;34.15;25.36;99633.91;12214375;19;20009;-87
2023/05/05 13:25:32;;;;;;;2.42;0.90;;;;;;;34.20;23.80;99624.88;12214277;19;20745;-86
2023/05/05 13:29:34;;;;;;;1.90;1.00;;;;;;;34.59;22.55;99623.09;12193771;19;20002;-88
2023/05/05 13:33:35;;;;;;;3.17;1.20;;;;;;;34.73;24.01;99613.59;12215985;19;20515;-87
2023/05/05 13:37:37;;;;;;;6.78;1.33;;;;;;;35.04;22.96;99601.16;12209357;19;20689;-86
2023/05/05 13:41:43;;;;;;;2.72;1.60;;;;;;;34.31;24.83;99601.97;12189207;19;21506;-87
2023/05/05 13:45:45;;;;;;;3.55;1.27;;;;;;;33.78;24.74;99597.25;12210949;19;20009;-86
2023/05/05 13:49:47;;;;;;;1.33;1.00;;;;;;;32.74;25.55;99590.75;12212585;19;20337;-87
2023/05/05 13:53:49;;;;;;;2.85;1.20;;;;;;;31.46;26.56;99591.81;12193671;19;20014;-86
2023/05/05 13:57:51;;;;;;;3.72;1.05;;;;;;;30.76;28.23;99597.28;12212095;19;20396;-86
2023/05/05 14:01:53;;;;;;;1.33;1.00;;;;;;;30.81;27.68;99596.94;12213946;19;20197;-87
2023/05/05 14:05:54;;;;;;;;;;;;;;;31.49;27.22;99586.13;12192078;19;20014;-84
2023/05/05 14:09:56;;;;;;;2.83;1.08;;;;;;;32.13;27.17;99588.53;12212233;19;19915;-86
2023/05/05 14:13:58;;;;;;;;;;;;;;;31.98;26.94;99595.38;12216501;19;20026;-88
2023/05/05 14:17:59;;;;;;;1.92;0.80;;;;;;;30.91;26.96;99583.19;12188263;19;20597;-87
2023/05/05 14:22:01;;;;;;;2.33;1.20;;;;;;;30.11;28.26;99592.06;12211182;19;20029;-86
2023/05/05 14:26:03;;;;;;;3.58;1.10;;;;;;;29.59;28.04;99583.22;12212844;19;20007;-86
2023/05/05 14:30:05;;;;;;;;;;;;;;;29.03;27.50;99590.50;12190868;19;20294;-86
2023/05/05 14:34:07;;;;;;;2.72;0.82;;;;;;;28.63;28.06;99586.13;12211869;19;20266;-86
2023/05/05 14:38:08;;;;;;;3.90;0.85;;;;;;;28.25;27.56;99578.47;12213820;19;20023;-85
2023/05/05 14:42:10;;;;;;;1.67;0.55;;;;;;;27.83;27.75;99578.41;12189528;19;20006;-85
2023/05/05 14:46:12;;;;;;;1.08;0.50;;;;;;;27.53;28.70;99572.47;12207654;19;20006;-85
2023/05/05 14:50:14;;;;;;;1.80;0.57;;;;;;;27.04;28.94;99571.72;12209709;19;20010;-85
2023/05/05 14:54:15;;;;;;;3.53;0.60;;;;;;;26.42;29.65;99575.34;12191955;19;20018;-82
2023/05/05 14:58:28;;;;;;;3.30;0.82;;;;;;;26.01;30.44;99585.88;12210347;19;20512;-85
2023/05/05 15:02:30;;;;;;;2.08;0.65;;;;;;;25.73;30.65;99597.94;12187814;19;20039;-85
2023/05/05 15:06:31;;;;;;;1.13;0.60;;;;;;;25.21;31.50;99596.72;12204811;19;20011;-86
2023/05/05 15:10:33;;;;;;;3.72;0.85;;;;;;;24.78;32.00;99597.28;12207061;19;20003;-85
2023/05/05 15:14:35;;;;;;;7.97;0.93;;;;;;;24.60;32.40;99593.00;12183586;19;20019;-86
2023/05/05 15:18:37;;;;;;;4.63;0.98;;;;;;;24.25;32.81;99601.81;12216330;19;20014;-86
2023/05/05 15:22:42;;;;;;;1.88;0.50;;;;;;;24.02;33.69;99590.91;12221779;19;20010;-86
2023/05/05 15:26:43;;;;;;;1.90;0.75;;;;;;;23.83;34.71;99593.41;12200108;19;20018;-86
2023/05/05 15:30:45;;;;;;;2.53;0.67;;;;;;;23.64;35.54;99603.09;12219479;19;20029;-86
2023/05/05 15:57:17;;;;;;;1.48;0.90;;;;;;;21.92;44.18;99625.00;12154739;19;20015;-82
2023/05/05 16:01:22;;;;;;;2.38;0.68;;;;;;;21.90;44.68;99632.97;12212694;19;20023;-84
2023/05/05 16:05:24;;;;;;;2.20;0.90;;;;;;;21.70;45.13;99649.25;12193641;19;20029;-84
2023/05/05 16:09:26;;;;;;;2.43;0.70;;;;;;;21.50;45.94;99653.50;12219256;19;20011;-83
2023/05/05 16:13:28;;;;;;;2.77;0.50;;;;;;;21.30;46.74;99666.16;12217883;19;20011;-82
2023/05/05 16:17:29;;;;;;;3.90;0.63;;;;;;;21.20;47.95;99658.00;12198015;19;20039;-83
2023/05/05 16:21:32;;;;;;;4.43;0.63;;;;;;;21.01;47.25;99671.47;12224220;19;20014;-84
2023/05/05 16:25:33;;;;;;;2.83;0.90;;;;;;;20.87;48.28;99680.78;12225129;19;20014;-81
2023/05/05 16:29:35;;;;;;;2.03;0.50;;;;;;;20.67;50.48;99696.19;12206638;19;20002;-81
2023/05/05 16:33:39;;;;;;;3.60;1.00;;;;;;;20.52;51.21;99704.09;12224366;19;20103;-82
2023/05/05 16:37:44;;;;;;;2.28;0.80;;;;;;;20.32;52.94;99706.28;12223219;19;20013;-83
2023/05/05 16:41:45;;;;;;;2.17;0.87;;;;;;;20.27;54.30;99714.78;12220417;19;20042;-82
2023/05/05 16:45:47;;;;;;;2.27;0.90;;;;;;;20.12;56.39;99710.38;12194678;19;20018;-82
2023/05/05 16:49:51;;;;;;;2.93;1.07;;;;;;;19.94;59.14;99706.59;12218082;19;20007;-80
2023/05/05 16:53:53;;;;;;;1.77;1.00;;;;;;;19.82;59.72;99691.53;12222611;19;20010;-79
2023/05/05 16:57:54;;;;;;;3.10;1.20;;;;;;;19.57;62.30;99688.09;12194749;19;20006;-80
2023/05/05 17:01:56;;;;;;;1.48;0.63;;;;;;;19.37;65.00;99678.19;12221040;19;20545;-82
2023/05/05 17:05:58;;;;;;;1.88;0.82;;;;;;;19.27;68.39;99672.81;12219923;19;20007;-83
2023/05/05 17:10:01;;;;;;;4.47;1.02;;;;;;;19.12;72.58;99665.56;12204271;19;20019;-83
2023/05/05 17:14:02;;;;;;;4.60;0.90;;;;;;;19.03;75.51;99673.84;12224679;19;20495;-81
2023/05/05 17:18:05;;;;;;;5.10;1.10;;;;;;;18.99;76.53;99681.19;12218126;19;20030;-83
2023/05/05 17:22:09;;;;;;;6.05;1.25;;;;;;;18.93;78.07;99690.81;12235739;19;20015;-82
2023/05/05 17:26:11;;;;;;;2.22;1.10;;;;;;;18.94;76.28;99688.84;12246456;19;20086;-81
2023/05/05 17:30:14;;;;;;;3.95;1.40;;;;;;;18.97;75.91;99697.41;12222826;19;20053;-81
2023/05/05 17:34:17;;;;;;;2.63;1.25;;;;;;;18.96;75.97;99695.78;12218437;19;20018;-80
2023/05/05 17:38:19;;;;;;;3.50;1.17;;;;;;;18.98;76.92;99695.47;12233377;19;20017;-80
2023/05/05 17:42:22;;;;;;;1.67;1.00;;;;;;;18.94;75.39;99698.03;12210679;19;20014;-81
2023/05/05 17:46:24;;;;;;;2.30;1.20;;;;;;;18.95;74.97;99705.28;12239424;19;20481;-81
2023/05/05 17:50:28;;;;;;;3.65;1.08;;;;;;;18.92;75.21;99705.91;12235138;19;20011;-80
2023/05/05 17:54:31;;;;;;;1.85;1.00;;;;;;;18.86;76.71;99707.97;12223534;19;20038;-81
2023/05/05 17:58:34;;;;;;;4.07;1.27;;;;;;;18.81;78.43;99701.66;12241437;19;20046;-81
2023/05/05 18:02:39;;;;;;;4.60;1.17;;;;;;;18.78;79.62;99703.09;12225593;19;20011;-80
2023/05/05 18:06:45;;;;;;;4.38;1.10;;;;;;;18.73;81.05;99705.09;12218416;19;20022;-81
2023/05/05 18:11:03;;;;;;;8.07;1.65;;;;;;;18.68;83.63;99712.44;12233857;19;20131;-82
2023/05/05 18:15:06;;;;;;;2.90;1.20;;;;;;;18.68;84.66;99711.63;12206198;19;20011;-81
2023/05/05 18:19:12;;;;;;;6.03;1.30;;;;;;;18.69;85.16;99702.09;12247536;19;20007;-81
2023/05/05 18:23:14;;;;;;;3.17;1.25;;;;;;;18.68;85.89;99712.44;12240981;19;20051;-80
2023/05/05 18:27:25;;;;;;;2.60;1.20;;;;;;;18.66;85.23;99720.28;12218809;19;20050;-82
2023/05/05 18:31:29;;;;;;;3.28;1.20;;;;;;;18.58;84.22;99720.97;12232806;19;20014;-81
2023/05/05 18:35:32;;;;;;;3.85;1.13;;;;;;;18.50;84.81;99730.06;12219645;19;20002;-81
2023/05/05 18:39:36;;;;;;;2.15;1.25;;;;;;;18.44;85.52;99734.03;12200495;19;20106;-81
2023/05/05 18:43:42;;;;;;;4.03;1.00;;;;;;;18.34;87.82;99725.84;12210544;19;20359;-81
2023/05/05 18:52:13;;;;;;;5.43;1.30;;;;;;;18.07;92.07;99734.94;12230365;19;20014;-80
2023/05/05 18:56:17;;;;;;;4.00;1.83;;;;;;;17.97;93.50;99741.47;12244043;19;20011;-83
2023/05/05 19:00:20;;;;;;;4.30;1.33;;;;;;;17.84;94.19;99753.34;12232527;19;20021;-82
2023/05/05 19:04:23;;;;;;;4.22;1.30;;;;;;;17.77;95.87;99746.19;12237410;19;20014;-82
2023/05/05 19:08:37;;;;;;;5.22;1.50;;;;;;;17.69;96.38;99752.41;12228005;19;20010;-80
2023/05/05 19:12:39;;;;;;;5.03;1.40;;;;;;;17.62;96.69;99754.72;12231627;19;20014;-81
2023/05/05 19:16:42;;;;;;;3.77;1.30;;;;;;;17.57;95.89;99759.53;12246621;19;20011;-83
2023/05/05 19:25:09;;;;;;;5.25;1.20;;;;;;;17.56;97.36;99757.88;12212855;19;20352;-83
2023/05/05 19:29:11;;;;;;;4.68;1.40;;;;;;;17.51;98.14;99756.81;12231558;19;20002;-82